Time;durP1;ratioP1;P1;durP2;ratioP2;P2;SDS_P1;SDS_P2;PMS_P1;PMS_P2;Temp;Humidity;BMP_temperature;BMP_pressure;BME280_temperature;BME280_humidity;BME280_pressure;Samples;Min_cycle;Max_cycle;Signal;HPM_P1;HPM_P2
2022/06/01 00:02:17;;;;;;;9.82;7.22;;;;;;;12.23;75.02;100831.25;5057892;28;20053;-71
2022/06/01 00:04:44;;;;;;;9.98;7.15;;;;;;;11.61;77.82;100830.28;5060628;28;20075;-71
2022/06/01 00:07:11;;;;;;;9.35;7.43;;;;;;;11.57;78.00;100831.38;5054021;28;20048;-71
2022/06/01 00:09:38;;;;;;;12.65;7.28;;;;;;;11.54;78.47;100826.28;5054207;28;20041;-72
2022/06/01 00:12:07;;;;;;;11.70;7.05;;;;;;;12.02;76.01;100820.16;5045074;28;20045;-72
2022/06/01 00:14:34;;;;;;;10.75;6.93;;;;;;;12.07;75.14;100821.59;5054824;28;20478;-72
2022/06/01 00:17:01;;;;;;;10.48;8.23;;;;;;;11.22;78.43;100821.00;5051388;28;20052;-72
2022/06/01 00:19:27;;;;;;;12.52;8.40;;;;;;;11.58;77.51;100823.44;5065101;28;20144;-72
2022/06/01 00:24:40;;;;;;;11.57;7.95;;;;;;;11.28;78.19;100819.81;5055776;28;20048;-71
2022/06/01 00:27:07;;;;;;;10.95;7.88;;;;;;;11.02;77.45;100812.47;5051073;28;20094;-73
2022/06/01 00:29:33;;;;;;;10.75;8.27;;;;;;;10.73;79.48;100819.22;5061884;28;20041;-72
2022/06/01 00:32:00;;;;;;;11.68;8.18;;;;;;;10.80;79.90;100815.34;5065235;28;20048;-72
2022/06/01 00:34:27;;;;;;;15.23;8.95;;;;;;;11.18;78.37;100813.38;5068152;28;20048;-71
2022/06/01 00:36:53;;;;;;;12.82;7.93;;;;;;;10.84;78.17;100823.91;5078713;28;20049;-72
2022/06/01 00:39:20;;;;;;;11.20;8.55;;;;;;;10.85;78.43;100821.22;5070877;28;20029;-72
2022/06/01 00:41:47;;;;;;;10.73;8.20;;;;;;;10.67;79.85;100830.88;5070433;28;20039;-71
2022/06/01 00:44:14;;;;;;;18.33;9.63;;;;;;;10.62;80.71;100832.03;5077908;28;20029;-71
2022/06/01 00:46:40;;;;;;;13.25;9.13;;;;;;;10.61;80.73;100831.19;5079333;28;20075;-71
2022/06/01 00:49:18;;;;;;;13.30;8.60;;;;;;;10.61;80.51;100839.03;5074957;28;20049;-71
2022/06/01 00:51:45;;;;;;;12.43;8.40;;;;;;;10.72;79.56;100834.09;5049323;28;20091;-71
2022/06/01 00:54:13;;;;;;;12.85;7.70;;;;;;;10.40;80.76;100841.88;5045869;28;20037;-71
2022/06/01 00:56:43;;;;;;;12.95;8.88;;;;;;;10.19;83.01;100833.31;5045774;28;20040;-71
2022/06/01 00:59:16;;;;;;;11.43;8.70;;;;;;;10.29;82.40;100837.19;5048840;28;20045;-71
2022/06/01 01:01:43;;;;;;;13.63;9.32;;;;;;;10.07;83.53;100834.72;5051674;28;20049;-71
2022/06/01 01:04:10;;;;;;;12.35;9.65;;;;;;;9.95;84.67;100835.28;5047489;28;20045;-70
2022/06/01 01:06:40;;;;;;;16.02;9.80;;;;;;;10.12;83.63;100830.13;5050925;28;20048;-70
2022/06/01 01:09:08;;;;;;;13.32;9.95;;;;;;;10.08;84.23;100827.72;5058397;28;20169;-70
2022/06/01 01:11:37;;;;;;;13.65;9.73;;;;;;;10.03;84.26;100834.94;5064354;28;20041;-70
2022/06/01 01:14:06;;;;;;;11.98;8.80;;;;;;;10.09;83.19;100842.50;5061785;28;20472;-70
2022/06/01 01:16:35;;;;;;;12.48;8.32;;;;;;;10.29;82.09;100831.94;5054402;28;20055;-70
2022/06/01 01:19:06;;;;;;;13.25;8.15;;;;;;;10.24;81.27;100839.16;5054050;28;20680;-70
2022/06/01 01:21:44;;;;;;;13.32;8.88;;;;;;;10.25;81.67;100828.63;5052564;28;20073;-70
2022/06/01 01:24:19;;;;;;;11.25;8.63;;;;;;;9.95;81.23;100824.81;5046343;28;20048;-70
2022/06/01 01:26:49;;;;;;;14.57;8.65;;;;;;;10.44;81.69;100828.56;5044753;28;20053;-71
2022/06/01 01:29:18;;;;;;;11.13;8.45;;;;;;;10.46;79.62;100816.22;5043852;28;20053;-71
2022/06/01 01:31:44;;;;;;;14.65;10.05;;;;;;;10.22;81.94;100822.69;5056970;28;20504;-71
2022/06/01 01:34:10;;;;;;;13.75;8.95;;;;;;;10.48;79.63;100818.78;5055862;28;20547;-71
2022/06/01 01:36:41;;;;;;;11.15;8.93;;;;;;;10.75;78.65;100815.59;5050655;28;20045;-71
2022/06/01 01:39:11;;;;;;;17.13;8.77;;;;;;;10.80;78.28;100814.50;5060274;28;20500;-71
2022/06/01 01:41:41;;;;;;;12.73;8.18;;;;;;;10.34;77.82;100816.84;5058487;28;20041;-71
2022/06/01 01:44:14;;;;;;;11.30;8.63;;;;;;;10.44;78.00;100822.47;5057964;28;20048;-71
2022/06/01 01:46:42;;;;;;;12.70;9.00;;;;;;;10.95;76.76;100818.97;5065103;28;20075;-71
2022/06/01 01:49:09;;;;;;;12.23;8.68;;;;;;;10.59;77.56;100812.06;5059212;28;20579;-71
2022/06/01 01:51:35;;;;;;;9.75;7.85;;;;;;;10.29;77.84;100817.97;5067364;28;20044;-68
2022/06/01 01:54:02;;;;;;;12.50;9.30;;;;;;;9.86;81.84;100809.56;5068508;28;20045;-69
2022/06/01 01:56:42;;;;;;;14.40;10.35;;;;;;;9.86;83.28;100816.56;5066864;28;20094;-69
2022/06/01 01:59:28;;;;;;;12.27;9.68;;;;;;;10.27;81.31;100812.84;5059254;28;20045;-69
2022/06/01 02:02:00;;;;;;;10.93;8.45;;;;;;;10.35;79.05;100809.84;5047456;28;20099;-69
2022/06/01 02:07:25;;;;;;;10.45;8.27;;;;;;;10.72;76.93;100818.38;5055878;28;20306;-68
2022/06/01 02:12:50;;;;;;;9.82;7.28;;;;;;;10.91;72.75;100809.56;4997109;28;20085;-69
2022/06/01 02:15:23;;;;;;;12.13;8.20;;;;;;;10.94;73.16;100801.56;5002808;28;20445;-69
2022/06/01 02:17:52;;;;;;;9.20;7.13;;;;;;;10.77;73.97;100805.03;5028480;28;20052;-69
2022/06/01 02:20:26;;;;;;;10.82;7.00;;;;;;;10.85;73.91;100807.25;5057556;28;20052;-69
2022/06/01 02:22:54;;;;;;;8.95;7.25;;;;;;;10.99;73.38;100805.63;5063407;28;20144;-69
2022/06/01 02:25:20;;;;;;;9.18;6.88;;;;;;;10.86;72.90;100804.56;5046983;28;20122;-69
2022/06/01 02:27:50;;;;;;;10.32;6.55;;;;;;;10.55;73.13;100807.91;5053787;28;20694;-70
2022/06/01 02:30:21;;;;;;;10.10;7.50;;;;;;;10.41;74.77;100805.13;5066641;28;20408;-69
2022/06/01 02:32:49;;;;;;;10.25;7.40;;;;;;;10.10;75.36;100795.25;5067988;28;20044;-69
2022/06/01 02:35:19;;;;;;;12.48;8.30;;;;;;;9.79;78.40;100801.13;5066786;28;20105;-68
2022/06/01 02:37:49;;;;;;;13.23;8.32;;;;;;;9.79;78.68;100790.66;5055850;28;20051;-69
2022/06/01 02:40:19;;;;;;;11.02;8.30;;;;;;;9.56;79.12;100790.91;5056725;28;20049;-69
2022/06/01 02:42:49;;;;;;;10.45;7.43;;;;;;;10.09;77.75;100784.84;5056791;28;20102;-68
2022/06/01 02:45:16;;;;;;;10.57;8.05;;;;;;;10.11;77.74;100783.88;5057221;28;20049;-68
2022/06/01 02:47:45;;;;;;;9.45;6.97;;;;;;;10.20;75.73;100785.19;5051937;28;20056;-69
2022/06/01 02:50:14;;;;;;;9.80;7.20;;;;;;;10.02;75.47;100784.31;5052622;28;20098;-68
2022/06/01 02:52:41;;;;;;;9.75;7.65;;;;;;;9.92;74.93;100793.53;5059341;28;20646;-69
2022/06/01 02:55:09;;;;;;;15.05;7.82;;;;;;;9.94;75.39;100793.47;5059334;28;20680;-69
2022/06/01 02:57:36;;;;;;;9.75;7.28;;;;;;;9.75;75.57;100788.28;5067130;28;20554;-69
2022/06/01 03:00:04;;;;;;;10.98;8.35;;;;;;;9.87;75.89;100785.03;5064428;28;20117;-69
2022/06/01 03:02:31;;;;;;;9.90;7.22;;;;;;;9.93;76.13;100791.78;5066370;28;20581;-69
2022/06/01 03:04:59;;;;;;;10.90;8.05;;;;;;;9.84;76.30;100800.91;5067147;28;20451;-68
2022/06/01 03:07:25;;;;;;;9.20;7.00;;;;;;;10.01;75.21;100790.50;5059330;28;22778;-68
2022/06/01 03:09:51;;;;;;;11.80;7.90;;;;;;;9.80;75.59;100801.97;5059184;28;20049;-68
2022/06/01 03:12:18;;;;;;;12.25;8.40;;;;;;;9.85;75.98;100801.75;5063699;28;20052;-69
2022/06/01 03:14:44;;;;;;;11.55;8.70;;;;;;;9.98;75.72;100793.22;5057446;28;20157;-69
2022/06/01 03:17:10;;;;;;;16.65;7.95;;;;;;;9.92;75.56;100795.31;5062824;28;20044;-70
2022/06/01 03:19:37;;;;;;;11.55;8.02;;;;;;;9.73;76.63;100804.03;5077687;28;20036;-68
2022/06/01 03:22:05;;;;;;;9.68;7.78;;;;;;;9.33;77.59;100804.19;5044439;28;20052;-68
2022/06/01 03:24:32;;;;;;;11.20;8.55;;;;;;;9.62;77.52;100806.31;5063026;28;20048;-68
2022/06/01 03:26:58;;;;;;;11.48;8.60;;;;;;;9.81;77.32;100810.69;5065784;28;20123;-67
2022/06/01 03:29:25;;;;;;;13.82;9.68;;;;;;;9.75;80.12;100817.06;5058559;28;20102;-68
2022/06/01 03:31:52;;;;;;;13.38;10.23;;;;;;;9.92;79.54;100821.50;5063082;28;20442;-68
2022/06/01 03:34:18;;;;;;;13.68;10.05;;;;;;;9.72;81.40;100818.03;5078698;28;20041;-69
2022/06/01 03:36:45;;;;;;;14.95;10.70;;;;;;;9.72;83.61;100807.56;5063061;28;20942;-69
2022/06/01 03:39:12;;;;;;;18.70;11.10;;;;;;;9.84;83.38;100800.91;5046989;28;20044;-69
2022/06/01 03:41:39;;;;;;;13.65;10.07;;;;;;;9.84;83.56;100808.75;5045722;28;20099;-69
2022/06/01 03:46:52;;;;;;;15.38;11.23;;;;;;;9.31;87.28;100821.75;5058559;28;20099;-68
2022/06/01 03:49:19;;;;;;;12.48;8.98;;;;;;;9.14;87.95;100824.25;5064391;28;20048;-69
2022/06/01 03:51:45;;;;;;;13.18;9.10;;;;;;;9.43;86.88;100825.53;5064341;28;20052;-68
2022/06/01 03:54:12;;;;;;;11.70;9.30;;;;;;;9.63;85.60;100825.50;5054217;28;20090;-69
2022/06/01 03:56:39;;;;;;;11.95;9.32;;;;;;;9.67;85.66;100825.28;5044035;28;20142;-69
2022/06/01 03:59:05;;;;;;;12.18;9.13;;;;;;;9.79;84.97;100819.44;5045712;28;20063;-69
2022/06/01 04:01:31;;;;;;;10.07;7.82;;;;;;;10.36;81.94;100816.75;5061492;28;20463;-70
2022/06/01 04:03:58;;;;;;;11.43;8.68;;;;;;;10.03;82.69;100813.97;5051156;28;20079;-70
2022/06/01 04:06:24;;;;;;;11.05;7.97;;;;;;;9.77;84.08;100813.44;5046645;28;20045;-70
2022/06/01 04:08:50;;;;;;;9.27;7.65;;;;;;;9.56;85.01;100816.22;5061577;28;20126;-69
2022/06/01 04:11:18;;;;;;;10.48;8.25;;;;;;;9.48;85.67;100818.34;5044594;28;20665;-69
2022/06/01 04:13:44;;;;;;;10.07;7.95;;;;;;;9.78;84.68;100816.91;5048410;28;20056;-69
2022/06/01 04:16:11;;;;;;;10.02;8.25;;;;;;;10.42;82.54;100811.22;5053061;28;20106;-70
2022/06/01 04:18:37;;;;;;;11.27;7.72;;;;;;;11.04;79.18;100801.00;5054873;28;20123;-70
2022/06/01 04:21:04;;;;;;;10.25;8.13;;;;;;;10.89;80.55;100795.69;5063580;28;20390;-69
2022/06/01 04:23:30;;;;;;;10.35;8.20;;;;;;;10.48;82.28;100798.66;5062560;28;20093;-69
2022/06/01 04:25:56;;;;;;;8.85;7.45;;;;;;;10.35;84.09;100801.97;5063735;28;20062;-69
2022/06/01 04:28:24;;;;;;;10.85;7.72;;;;;;;10.28;85.25;100806.63;5062301;28;20049;-69
2022/06/01 04:30:51;;;;;;;17.48;8.00;;;;;;;11.06;83.19;100796.50;5063256;28;20070;-69
2022/06/01 04:33:18;;;;;;;8.57;7.28;;;;;;;11.13;82.12;100807.50;5054348;28;20056;-69
2022/06/01 04:35:44;;;;;;;8.25;6.75;;;;;;;11.27;80.44;100810.25;5052905;28;20991;-69
2022/06/01 04:38:13;;;;;;;7.57;6.32;;;;;;;11.57;79.45;100808.59;5053044;28;20067;-69
2022/06/01 04:40:40;;;;;;;7.65;6.03;;;;;;;11.09;80.52;100813.84;5053359;28;20086;-69
2022/06/01 04:43:07;;;;;;;9.30;5.90;;;;;;;11.03;80.70;100798.44;5064539;28;20667;-69
2022/06/01 04:45:34;;;;;;;9.93;6.70;;;;;;;11.87;79.29;100805.22;5049641;28;20045;-69
2022/06/01 04:48:01;;;;;;;7.68;6.28;;;;;;;11.95;79.06;100805.66;5043275;28;20045;-69
2022/06/01 04:50:27;;;;;;;9.75;7.28;;;;;;;11.80;80.58;100804.75;5055069;28;20044;-69
2022/06/01 04:52:53;;;;;;;10.02;6.50;;;;;;;11.65;80.00;100810.81;5051816;28;20098;-69
2022/06/01 04:55:20;;;;;;;8.25;6.07;;;;;;;11.79;79.82;100818.78;5054463;28;20106;-69
2022/06/01 04:57:47;;;;;;;10.60;6.57;;;;;;;11.81;80.01;100822.19;5057126;28;20055;-69
2022/06/01 05:00:14;;;;;;;9.18;5.97;;;;;;;11.33;82.77;100822.22;5052789;28;20071;-69
2022/06/01 05:02:42;;;;;;;11.20;6.68;;;;;;;11.07;84.28;100820.97;5059744;28;20094;-69
2022/06/01 05:05:09;;;;;;;7.68;6.50;;;;;;;10.97;86.02;100827.63;5062838;28;20040;-70
2022/06/01 05:07:35;;;;;;;8.82;6.43;;;;;;;11.35;85.55;100839.56;5063317;28;20040;-70
2022/06/01 05:10:02;;;;;;;9.50;7.25;;;;;;;12.09;83.32;100847.78;5050649;28;20106;-70
2022/06/01 05:12:29;;;;;;;9.35;6.32;;;;;;;12.56;79.31;100838.00;5045464;28;20072;-70
2022/06/01 05:14:55;;;;;;;7.93;6.72;;;;;;;12.62;79.55;100845.56;5059011;28;20178;-71
2022/06/01 05:17:21;;;;;;;8.63;6.80;;;;;;;12.97;77.78;100846.09;5050544;28;20041;-72
2022/06/01 05:19:49;;;;;;;11.98;7.65;;;;;;;12.65;78.94;100834.00;5053965;28;20562;-72
2022/06/01 05:22:15;;;;;;;9.68;7.15;;;;;;;13.08;76.85;100827.88;5067680;28;20063;-72
2022/06/01 05:24:42;;;;;;;9.75;6.93;;;;;;;13.41;75.83;100821.53;5051095;28;20106;-71
2022/06/01 05:27:08;;;;;;;9.43;7.05;;;;;;;13.69;74.42;100826.75;5048752;28;20413;-71
2022/06/01 05:29:35;;;;;;;9.40;6.72;;;;;;;13.58;74.51;100816.91;5050246;28;20137;-71
2022/06/01 05:32:01;;;;;;;9.30;7.00;;;;;;;12.11;81.62;100828.38;5063224;28;20492;-71
2022/06/01 05:34:28;;;;;;;11.07;6.78;;;;;;;12.31;81.50;100819.34;5067949;28;20049;-71
2022/06/01 05:36:55;;;;;;;9.18;6.80;;;;;;;12.50;79.67;100811.22;5063068;28;20437;-71
2022/06/01 05:39:22;;;;;;;7.68;6.85;;;;;;;12.98;78.19;100802.19;5061414;28;20044;-71
2022/06/01 05:41:48;;;;;;;11.90;7.65;;;;;;;13.33;78.94;100813.25;5060834;28;20115;-71
2022/06/01 05:44:14;;;;;;;8.15;6.90;;;;;;;13.46;78.28;100808.91;5050674;28;20041;-71
2022/06/01 05:46:41;;;;;;;9.38;7.13;;;;;;;13.30;80.10;100826.63;5054343;28;20748;-71
2022/06/01 05:49:07;;;;;;;11.68;7.18;;;;;;;13.74;79.53;100829.13;5045918;28;20068;-71
2022/06/01 05:51:35;;;;;;;7.82;6.55;;;;;;;14.56;77.66;100822.81;5047884;28;20049;-71
2022/06/01 05:54:03;;;;;;;6.40;5.25;;;;;;;14.71;73.37;100830.66;5055941;28;20060;-71
2022/06/01 05:56:29;;;;;;;8.15;5.75;;;;;;;14.59;72.68;100827.91;5053640;28;20053;-71
2022/06/01 05:58:56;;;;;;;11.55;6.43;;;;;;;14.42;73.68;100830.78;5057593;28;20071;-71
2022/06/01 06:01:23;;;;;;;9.85;5.53;;;;;;;14.80;72.01;100833.53;5047811;28;20045;-71
2022/06/01 06:03:49;;;;;;;6.05;5.45;;;;;;;14.87;71.48;100828.66;5046274;28;20049;-71
2022/06/01 06:06:16;;;;;;;6.85;5.50;;;;;;;14.83;73.17;100825.38;5066862;28;20055;-71
2022/06/01 06:08:47;;;;;;;6.20;5.35;;;;;;;14.34;74.67;100829.56;5066594;28;20127;-71
2022/06/01 06:11:16;;;;;;;8.88;5.57;;;;;;;14.77;73.96;100838.16;5050829;28;20114;-71
2022/06/01 06:13:43;;;;;;;6.70;5.13;;;;;;;15.58;71.14;100835.13;5063842;28;20053;-71
2022/06/01 06:16:10;;;;;;;7.90;4.93;;;;;;;15.85;68.47;100847.31;5057792;28;20048;-70
2022/06/01 06:18:37;;;;;;;8.20;5.25;;;;;;;16.44;69.19;100846.41;5067770;28;20457;-70
2022/06/01 06:21:04;;;;;;;5.45;4.70;;;;;;;16.63;65.41;100840.63;5064782;28;20040;-70
2022/06/01 06:23:31;;;;;;;5.97;4.78;;;;;;;16.63;66.80;100850.41;5064735;28;20056;-70
2022/06/01 06:25:58;;;;;;;9.07;5.13;;;;;;;17.46;63.58;100843.91;5060865;28;20040;-70
2022/06/01 06:28:26;;;;;;;6.35;5.10;;;;;;;17.87;62.59;100848.63;5055674;28;20051;-70
2022/06/01 06:30:53;;;;;;;6.45;5.05;;;;;;;17.96;61.83;100850.50;5055987;28;20497;-70
2022/06/01 06:33:19;;;;;;;5.93;4.57;;;;;;;18.95;62.56;100851.16;5048247;28;20045;-70
2022/06/01 06:35:46;;;;;;;5.78;4.63;;;;;;;19.38;56.42;100851.81;5046582;28;20107;-70
2022/06/01 06:38:12;;;;;;;6.07;4.40;;;;;;;19.28;55.67;100836.78;5051735;28;20036;-70
2022/06/01 06:40:39;;;;;;;8.20;4.50;;;;;;;18.88;58.90;100849.97;5059086;28;20417;-70
2022/06/01 06:43:05;;;;;;;5.95;4.35;;;;;;;19.27;57.69;100838.59;5051434;28;20052;-70
2022/06/01 06:45:33;;;;;;;4.95;4.05;;;;;;;19.06;57.58;100840.44;5053938;28;20130;-70
2022/06/01 06:47:59;;;;;;;5.72;4.03;;;;;;;19.89;56.45;100862.38;5055644;28;20489;-70
2022/06/01 06:50:26;;;;;;;6.03;3.88;;;;;;;20.44;53.53;100853.94;5046320;28;20525;-70
2022/06/01 06:52:52;;;;;;;5.63;3.85;;;;;;;20.78;51.22;100849.88;5046568;28;20049;-70
2022/06/01 06:55:18;;;;;;;4.18;3.70;;;;;;;20.80;51.75;100853.25;5058725;28;20060;-70
2022/06/01 06:57:45;;;;;;;4.22;3.50;;;;;;;21.04;51.39;100853.63;5054026;28;20052;-70
2022/06/01 07:00:13;;;;;;;6.68;3.80;;;;;;;21.51;49.72;100845.66;5060324;28;20040;-67
2022/06/01 07:02:41;;;;;;;5.85;3.78;;;;;;;20.60;52.88;100854.25;5052433;28;20055;-67
2022/06/01 07:05:09;;;;;;;5.00;3.65;;;;;;;21.02;52.97;100855.63;5063969;28;20044;-67
2022/06/01 07:07:35;;;;;;;4.85;3.70;;;;;;;20.66;53.10;100856.34;5064024;28;20044;-67
2022/06/01 07:10:02;;;;;;;5.28;4.15;;;;;;;20.45;51.50;100858.31;5061495;28;20075;-67
2022/06/01 07:12:28;;;;;;;4.55;3.80;;;;;;;20.36;53.57;100846.69;5045568;28;20094;-67
2022/06/01 07:14:55;;;;;;;7.55;4.22;;;;;;;21.34;51.47;100853.44;5052562;28;20063;-67
2022/06/01 07:17:21;;;;;;;5.97;4.20;;;;;;;21.93;50.36;100851.38;5049299;28;20162;-67
2022/06/01 07:19:49;;;;;;;7.07;4.10;;;;;;;22.16;47.87;100855.31;5046287;28;20060;-67
2022/06/01 07:22:15;;;;;;;6.32;4.35;;;;;;;21.74;49.50;100847.78;5046229;28;20049;-67
2022/06/01 07:24:42;;;;;;;4.80;3.80;;;;;;;22.62;44.75;100852.41;5055977;28;20052;-67
2022/06/01 07:27:08;;;;;;;5.65;3.88;;;;;;;22.89;44.47;100854.19;5061907;28;20045;-67
2022/06/01 07:29:34;;;;;;;3.97;3.50;;;;;;;22.59;46.32;100855.41;5063608;28;20067;-67
2022/06/01 07:32:01;;;;;;;5.10;3.40;;;;;;;23.27;41.77;100856.47;5053213;28;20049;-67
2022/06/01 07:34:27;;;;;;;5.28;3.40;;;;;;;23.16;41.01;100863.91;5050760;28;20080;-67
2022/06/01 07:43:05;;;;;;;4.32;3.70;;;;;;;22.59;42.79;100863.41;5054743;28;20044;-67
2022/06/01 07:45:09;;;;;;;5.05;3.70;;;;;;;20.89;43.71;100857.72;5055770;28;20091;-67
2022/06/01 07:47:35;;;;;;;6.07;3.53;;;;;;;20.85;45.12;100853.66;5056650;28;20558;-67
2022/06/01 07:50:01;;;;;;;5.10;3.60;;;;;;;20.68;46.80;100860.56;5065466;28;20109;-67
2022/06/01 07:52:29;;;;;;;6.78;3.42;;;;;;;21.28;47.13;100854.03;5065183;28;20044;-67
2022/06/01 07:54:56;;;;;;;7.45;3.38;;;;;;;21.63;43.95;100850.66;5063342;28;20048;-67
2022/06/01 07:57:22;;;;;;;3.88;2.97;;;;;;;22.11;44.57;100857.59;5050688;28;20044;-67
2022/06/01 07:59:48;;;;;;;6.47;3.40;;;;;;;22.81;45.71;100851.44;5061673;28;20049;-67
2022/06/01 08:02:15;;;;;;;6.97;3.38;;;;;;;23.24;42.56;100854.06;5062513;28;20116;-67
2022/06/01 08:04:41;;;;;;;4.53;2.83;;;;;;;23.75;38.41;100852.38;5065280;28;20040;-67
2022/06/01 08:07:07;;;;;;;5.03;3.63;;;;;;;24.04;39.91;100854.66;5064906;28;20068;-68
2022/06/01 08:09:35;;;;;;;6.40;2.85;;;;;;;24.10;37.95;100857.50;5045596;28;20045;-68
2022/06/01 08:14:45;;;;;;;7.07;3.13;;;;;;;23.64;38.38;100855.34;5056700;28;20546;-68
2022/06/01 08:17:12;;;;;;;6.75;3.22;;;;;;;23.73;39.32;100859.72;5064527;28;20041;-68
2022/06/01 08:19:38;;;;;;;4.63;3.25;;;;;;;23.35;38.84;100861.03;5058166;28;20045;-68
2022/06/01 08:22:05;;;;;;;4.00;2.83;;;;;;;22.79;40.04;100861.47;5045069;28;20049;-68
2022/06/01 08:24:32;;;;;;;5.50;3.05;;;;;;;22.84;40.08;100861.00;5044151;28;20045;-68
2022/06/01 08:27:00;;;;;;;5.43;2.67;;;;;;;22.29;39.81;100869.97;5060999;28;20397;-68
2022/06/01 08:29:26;;;;;;;5.30;2.78;;;;;;;22.09;41.18;100865.78;5049410;28;20482;-68
2022/06/01 08:31:53;;;;;;;3.83;2.70;;;;;;;22.49;39.52;100868.00;5062529;28;20112;-68
2022/06/01 08:34:19;;;;;;;7.57;2.80;;;;;;;22.57;39.20;100859.22;5061385;28;20469;-68
2022/06/01 08:36:46;;;;;;;5.28;3.05;;;;;;;23.06;37.75;100855.97;5064655;28;20060;-68
2022/06/01 08:39:13;;;;;;;3.45;2.40;;;;;;;23.61;39.23;100861.03;5060669;28;20056;-68
2022/06/01 08:41:40;;;;;;;3.25;2.05;;;;;;;24.61;38.56;100858.31;5046246;28;20118;-68
2022/06/01 08:44:22;;;;;;;4.97;2.65;;;;;;;24.37;33.68;100852.91;5054901;28;20540;-67
2022/06/01 08:46:48;;;;;;;6.93;4.47;;;;;;;23.83;33.87;100857.78;5045735;28;20493;-67
2022/06/01 08:49:23;;;;;;;5.65;3.20;;;;;;;23.31;35.50;100853.47;5043570;28;20435;-67
2022/06/01 08:51:51;;;;;;;4.03;2.38;;;;;;;24.07;37.82;100857.84;5049768;28;20102;-69
2022/06/01 08:54:17;;;;;;;7.35;2.35;;;;;;;24.84;36.77;100853.97;5062782;28;20048;-69
2022/06/01 08:56:46;;;;;;;3.13;2.00;;;;;;;24.77;33.60;100855.63;5063931;28;20049;-69
2022/06/01 08:59:25;;;;;;;3.97;2.60;;;;;;;24.32;32.53;100855.22;5054283;28;20048;-69
2022/06/01 09:01:59;;;;;;;6.78;3.83;;;;;;;24.13;32.98;100859.88;5044734;28;20041;-69
2022/06/01 09:04:30;;;;;;;3.67;2.40;;;;;;;23.77;35.39;100855.72;5045748;28;20493;-69
2022/06/01 09:07:09;;;;;;;3.22;2.05;;;;;;;22.96;35.13;100857.06;5058884;28;20070;-69
2022/06/01 09:09:47;;;;;;;3.85;2.38;;;;;;;22.16;36.23;100858.84;5060504;28;20041;-69
2022/06/01 09:12:14;;;;;;;3.30;2.33;;;;;;;22.63;35.75;100855.94;5051293;28;20090;-69
2022/06/01 09:14:45;;;;;;;4.13;2.63;;;;;;;22.84;36.45;100861.00;5048264;28;20048;-69
2022/06/01 09:17:11;;;;;;;4.05;3.13;;;;;;;23.31;38.01;100853.47;5050117;28;20049;-69
2022/06/01 09:22:42;;;;;;;4.15;2.25;;;;;;;24.87;34.39;100844.75;5033965;28;20561;-69
2022/06/01 09:25:11;;;;;;;5.03;2.85;;;;;;;24.00;35.10;100851.47;5045679;28;20048;-69
2022/06/01 09:27:41;;;;;;;4.80;2.55;;;;;;;24.61;36.07;100848.41;5043884;28;20044;-69
2022/06/01 09:30:21;;;;;;;5.75;2.13;;;;;;;24.71;35.47;100858.97;5043278;28;20049;-69
2022/06/01 09:33:05;;;;;;;2.95;2.20;;;;;;;24.89;36.61;100854.31;5045880;28;20131;-69
2022/06/01 09:35:35;;;;;;;3.92;2.22;;;;;;;25.33;35.32;100852.06;5055602;28;20094;-69
2022/06/01 09:38:04;;;;;;;3.42;2.05;;;;;;;25.08;38.12;100845.91;5050487;28;20041;-69
2022/06/01 09:40:35;;;;;;;3.70;2.55;;;;;;;25.23;33.97;100851.41;5041647;28;20045;-69
2022/06/01 09:43:02;;;;;;;3.50;2.10;;;;;;;24.80;34.09;100846.38;5058746;28;20095;-69
2022/06/01 09:45:33;;;;;;;3.65;2.22;;;;;;;25.04;33.57;100836.53;5054805;28;20320;-69
2022/06/01 09:48:12;;;;;;;5.25;2.88;;;;;;;26.06;35.95;100841.88;5043780;28;20041;-69
2022/06/01 09:50:42;;;;;;;3.95;2.40;;;;;;;25.58;32.12;100837.56;5042490;28;20452;-69
2022/06/01 09:53:18;;;;;;;2.92;2.33;;;;;;;25.40;33.25;100846.81;5043775;28;20102;-70
2022/06/01 09:55:52;;;;;;;3.03;2.67;;;;;;;25.61;35.14;100833.69;5041695;28;20041;-69
2022/06/01 10:06:50;;;;;;;4.50;2.78;;;;;;;24.65;34.35;100822.94;5065028;28;20086;-69
2022/06/01 10:09:23;;;;;;;3.75;2.92;;;;;;;22.93;35.30;100818.13;5054532;28;20071;-69
2022/06/01 10:11:51;;;;;;;5.38;2.50;;;;;;;23.53;37.15;100815.47;5048523;28;20052;-69
2022/06/01 10:14:21;;;;;;;4.75;2.60;;;;;;;24.31;34.41;100808.03;5055105;28;20059;-69
2022/06/01 10:17:10;;;;;;;7.75;2.40;;;;;;;24.48;34.04;100823.09;5052805;28;20053;-69
2022/06/01 10:19:44;;;;;;;4.32;2.50;;;;;;;23.96;34.44;100815.28;5063836;28;20041;-68
2022/06/01 10:22:18;;;;;;;3.08;2.10;;;;;;;23.45;36.24;100824.31;5071520;28;20053;-68
2022/06/01 10:24:49;;;;;;;4.60;2.00;;;;;;;23.23;35.53;100828.34;5054315;28;20045;-68
2022/06/01 10:27:21;;;;;;;3.93;2.20;;;;;;;23.26;34.92;100832.53;5056273;28;20053;-68
2022/06/01 10:29:52;;;;;;;4.00;2.30;;;;;;;23.20;36.94;100828.66;5056192;28;20508;-68
2022/06/01 10:32:31;;;;;;;5.32;2.60;;;;;;;23.18;36.31;100832.47;5053774;28;20052;-68
2022/06/01 10:35:08;;;;;;;4.60;2.30;;;;;;;23.70;38.07;100827.91;5053712;28;20049;-68
2022/06/01 10:37:40;;;;;;;5.07;2.20;;;;;;;24.40;34.89;100818.56;5056449;28;20448;-68
2022/06/01 10:40:13;;;;;;;4.28;2.53;;;;;;;23.83;33.95;100828.31;5052872;28;20041;-68
2022/06/01 10:45:34;;;;;;;4.95;3.10;;;;;;;21.87;37.58;100841.28;5053791;28;20512;-68
2022/06/01 10:48:12;;;;;;;5.97;2.70;;;;;;;21.86;39.48;100843.09;5047597;28;20052;-68
2022/06/01 10:50:49;;;;;;;8.27;2.72;;;;;;;22.56;38.91;100833.50;5064290;28;20052;-68
2022/06/01 10:53:23;;;;;;;6.35;2.30;;;;;;;23.78;37.29;100830.63;5046768;28;20485;-68
2022/06/01 10:55:50;;;;;;;5.25;1.50;;;;;;;24.07;33.60;100830.22;5047451;28;20067;-66
2022/06/01 10:58:21;;;;;;;2.58;1.10;;;;;;;24.11;33.51;100827.03;5062713;28;20696;-66
2022/06/01 11:00:54;;;;;;;2.88;1.20;;;;;;;24.17;32.68;100823.72;5062164;28;20135;-66
2022/06/01 11:04:06;;;;;;;2.92;1.10;;;;;;;24.65;32.56;100822.94;5065213;28;20090;-66
2022/06/01 11:06:58;;;;;;;3.15;1.10;;;;;;;24.55;29.85;100830.31;4982714;28;20093;-66
2022/06/01 11:09:32;;;;;;;3.80;1.40;;;;;;;23.43;30.97;100825.47;5044933;28;20069;-66
2022/06/01 11:12:08;;;;;;;1.70;1.05;;;;;;;22.76;32.03;100827.84;5045194;28;20049;-66
2022/06/01 11:15:11;;;;;;;6.75;1.85;;;;;;;22.22;33.23;100836.00;5049969;28;20041;-66
2022/06/01 11:17:46;;;;;;;3.40;1.40;;;;;;;21.77;33.49;100831.47;5045860;28;20731;-66
2022/06/01 11:20:27;;;;;;;2.42;1.20;;;;;;;21.86;34.63;100832.41;5049183;28;20041;-66
2022/06/01 11:23:17;;;;;;;3.42;1.52;;;;;;;21.52;34.65;100831.31;5062840;28;20052;-66
2022/06/01 11:25:52;;;;;;;5.60;1.50;;;;;;;21.51;35.55;100832.31;5061712;28;20044;-66
2022/06/01 11:28:41;;;;;;;6.95;1.95;;;;;;;21.50;35.85;100838.66;5065253;28;20045;-66
2022/06/01 11:31:15;;;;;;;3.53;1.90;;;;;;;22.61;36.74;100836.56;5052752;28;20118;-66
2022/06/01 11:33:49;;;;;;;6.40;2.10;;;;;;;22.78;34.33;100838.38;5045247;28;20102;-66
2022/06/01 11:36:28;;;;;;;4.50;1.88;;;;;;;22.02;34.08;100846.00;5046704;28;20098;-66
2022/06/01 11:39:19;;;;;;;2.65;1.33;;;;;;;21.48;35.25;100844.13;5046187;28;20068;-66
2022/06/01 11:41:55;;;;;;;3.10;1.70;;;;;;;21.71;35.80;100848.09;5047988;28;20044;-66
2022/06/01 11:44:34;;;;;;;4.88;1.60;;;;;;;22.13;34.59;100839.59;5052094;28;20044;-66
2022/06/01 11:47:04;;;;;;;3.22;1.33;;;;;;;22.76;37.23;100841.19;5053730;28;20056;-66
2022/06/01 11:49:37;;;;;;;2.75;1.48;;;;;;;22.62;33.47;100835.53;5044578;28;20041;-66
2022/06/01 11:52:32;;;;;;;4.05;1.77;;;;;;;23.07;33.97;100820.22;5045114;28;20044;-66
2022/06/01 11:55:40;;;;;;;4.95;1.55;;;;;;;23.04;33.37;100830.38;5044446;28;20102;-66
2022/06/01 11:58:10;;;;;;;5.32;1.67;;;;;;;23.14;33.33;100831.09;5044506;28;20095;-66
2022/06/01 12:00:41;;;;;;;4.53;1.60;;;;;;;22.65;32.61;100843.28;5042926;28;20103;-66
2022/06/01 12:03:33;;;;;;;3.10;1.20;;;;;;;23.31;32.16;100826.72;5045587;28;20501;-66
2022/06/01 12:06:02;;;;;;;3.83;1.35;;;;;;;23.45;31.30;100826.97;5042565;28;20045;-66
2022/06/01 12:08:33;;;;;;;4.63;1.30;;;;;;;23.66;29.60;100837.28;5043725;28;20049;-66
2022/06/01 12:11:04;;;;;;;3.83;1.20;;;;;;;24.21;30.54;100840.31;5045335;28;20128;-67